Detalii statie MOLDOVA TIGANASI [00001D08]

Toti senzorii

Date Temperatura solului [C]Precipitatii [mm]Voltaj baterie [mV]Leaf Wetness [Min]HC Air temperature [C]HC Relative humidity [%]Punctul de roua [C]
medieminmaxsumaultimatimpmedieminmaxmediemediemin
2019-02-21 01:00:00 2.8 2.7 3 0 6932 2.06 1.33 2.68 89.29 0.3 0.2
2019-02-21 02:00:00 2.6 2.5 2.7 0 6932 2.78 2.36 3.4 83.47 0.1 0
2019-02-21 03:00:00 2.5 2.5 2.7 0 6932 3.85 3.27 4.37 78.13 0.2 0.1
2019-02-21 04:00:00 2.6 2.6 2.8 0 6922 4.18 3.91 4.35 76.87 0.3 0.2
2019-02-21 05:00:00 2.6 2.6 2.8 0 6932 4.54 4.11 4.9 75.61 0.5 0.4
2019-02-21 06:00:00 2.7 2.6 2.8 0 6922 4.27 3.33 4.73 76.71 0.4 0.3
2019-02-21 07:00:00 2.5 2.4 2.6 0 6922 2.84 2.39 3.57 84.68 0.4 0.2
2019-02-21 08:00:00 2.4 2.2 2.6 0 7050 3.23 2.59 3.92 82.72 0.4 0.1
2019-02-21 09:00:00 2.4 2.3 2.6 0 7382 5.02 4.2 5.95 78.75 1.5 1.1
2019-02-21 10:00:00 2.8 2.6 3.1 0 7362 7.25 6.01 8.11 69.11 1.8 1.4
2019-02-21 11:00:00 3.3 3.2 3.6 0 7324 8.32 7.76 9.06 61.49 1.2 0.5
2019-02-21 12:00:00 3.7 3.7 3.9 0 7294 8.35 8.09 8.55 52.17 -0.9 -1.7
2019-02-21 13:00:00 3.9 3.7 4 0 7362 8.85 8.39 9.3 49.38 -1.2 -1.7
2019-02-21 14:00:00 4 4 4.2 0 7352 8.73 8.39 9.16 52.03 -0.6 -1.7
2019-02-21 15:00:00 4.1 4 4.4 0 7362 9.11 8.38 9.74 53.76 0 -0.6
2019-02-21 16:00:00 4.3 4.2 4.5 0 7362 9.54 9.46 9.73 49.55 -0.5 -1.1
2019-02-21 17:00:00 4.4 4.3 4.6 0 7362 9.29 8.84 9.6 49.72 -0.7 -0.9
2019-02-21 18:00:00 4.3 4.2 4.5 0 7060 7.45 6.89 8.67 60.95 0.3 -0.3
2019-02-21 19:00:00 4.1 4 4.3 0 7020 7.1 6.91 7.28 61.59 0 -0.2
2019-02-21 20:00:00 4 4 4.2 0 7000 7.28 7.12 7.4 58.22 -0.4 -0.8
2019-02-21 21:00:00 3.9 3.8 4.1 0 7000 7.19 6.91 7.59 59.23 -0.2 -0.8
2019-02-21 22:00:00 3.8 3.7 3.9 0 6992 6.65 6.27 7.25 65.59 0.5 0.1
2019-02-21 23:00:00 3.7 3.7 3.9 0 6982 6.34 6.08 6.6 66.49 0.3 0.2
2019-02-22 00:00:00 3.7 3.6 3.9 0 6982 5.72 5.35 5.97 70.49 0.6 0.3
2019-02-22 01:00:00 3.6 3.5 3.8 0 6962 6.19 5.84 6.39 70.6 1 0.3
2019-02-22 02:00:00 3.6 3.6 3.7 0 6962 5.47 4.88 5.98 79.11 2 1.7
2019-02-22 03:00:00 3.5 3.5 3.7 0.2 6962 5.07 4.58 5.55 86.34 2.8 2.2
2019-02-22 04:00:00 3.5 3.4 3.7 0.8 6942 4.29 4.08 4.46 99.36 4.1 4
2019-02-22 05:00:00 3.5 3.5 3.7 1 6942 4.06 3.89 4.21 100 4 3.8
2019-02-22 06:00:00 3.5 3.4 3.7 0.8 6922 3.74 3.69 3.84 100 3.7 3.6
2019-02-22 07:00:00 3.4 3.3 3.5 0.6 6922 3.62 3.51 3.72 100 3.5 3.5
2019-02-22 08:00:00 3.4 3.4 3.5 0.6 6922 3.52 3.45 3.67 100 3.4 3.4
2019-02-22 09:00:00 3.4 3.4 3.5 1 6932 3.71 3.66 3.77 100 3.6 3.6
2019-02-22 10:00:00 3.4 3.4 3.5 0.4 7000 1.55 0.01 3.71 100 1.5 0
2019-02-22 11:00:00 3.2 3.1 3.4 0 7000 -0.38 -0.71 -0.08 100 -0.2 -0.6
2019-02-22 12:00:00 2.9 2.6 3.1 0 7166 -1.21 -1.65 -0.65 100 -1 -1.5
2019-02-22 13:00:00 2.7 2.6 2.9 0 7372 -1.59 -2.19 -1.03 99.28 -1.5 -2
2019-02-22 14:00:00 2.5 2.4 2.6 0 7362 -2.28 -2.5 -2 98.91 -2.3 -2.8
2019-02-22 15:00:00 2.4 2.3 2.6 0 7352 -2.56 -3.02 -2.26 94.1 -3.3 -5.4
2019-02-22 16:00:00 2.3 2.2 2.5 0 7392 -1.84 -2.29 -1.52 72.5 -6 -7.5
2019-02-22 17:00:00 2.2 2.1 2.3 0 7362 -2.26 -2.76 -2 63.85 -8.1 -9.3
2019-02-22 18:00:00 2 1.9 2.2 0 7128 -2.58 -2.9 -2.31 60.13 -9.2 -10
2019-02-22 19:00:00 1.7 1.6 2 0 7070 -3.16 -3.54 -2.78 60.32 -9.6 -10.4
2019-02-22 20:00:00 1.6 1.5 1.7 0 7020 -3.43 -3.6 -3.19 62.1 -9.5 -10
2019-02-22 21:00:00 1.4 1.3 1.5 0 6992 -4.15 -4.45 -3.66 61.98 -10.3 -10.8
2019-02-22 22:00:00 1.2 1.1 1.4 0 6992 -4.56 -4.7 -4.41 66.79 -9.7 -10.4
2019-02-22 23:00:00 1.1 1.1 1.2 0 6972 -5.28 -6.01 -4.67 69.69 -9.8 -10